Jefferson Park, New York
Current Conditions -  °F | °C
As of 1:39 AM on Friday 19 Dec 2014 (Local Time) from KART Reporting Station
Overcast Overcast  
Wind Chill: 21°   Ceiling: 1400
Heat Index: 28°   Visibility: 10mi
Dew Point: 20°   Wind: 7mph
Humidity: 72%   Direction: 350°N
Pressure: 30.03"   Gusts: NA
Location:  43.8534°N, 76.251°W
Report Text: KART 190639Z AUTO 35006KT 10SM BKN014 OVC020 M02/M07 A3003 RMK AO2 T10221067
Loading
Personal Weather Stations






























Interactive Weather Map New forecast layout! Learn more

10-Day Weather Forecast

Advertisements
Track Severe Weather on mobile